Flight Track Log - Related Links

Times and Time Zones

All times are in EDT time to prevent confusion due to time zone crossing. See the AWI3778 flight status page for this flight to view local times or setup timezone preferences in your user account.

Time Position Orientation Groundspeed Altitude Reporting Facility
EDT Latitude Longitude Course Direction KTS MPH feet Rate Location/Type
Sat 01:25:53 PM 38.8836 -77.0611 180° South 174 200 1,300  Level Washington Center
Sat 01:26:28 PM 38.9000 -77.0833 313° West 207 238 2,900 2,779 Climbing Potomac TRACON
Sat 01:27:28 PM 38.9500 -77.1333 322° Northwest 204 235 5,700 2,500 Climbing Potomac TRACON
Sat 01:28:00 PM 38.5974 -76.7640 142° Southeast  Level FlightAware Approximate
Sat 01:28:28 PM 39.0000 -77.1000 27° Northeast 243 280 7,900  Level Potomac TRACON
Sat 01:29:00 PM 38.4995 -76.7099 171° South  Level FlightAware Approximate
Sat 01:29:28 PM 39.0167 -77.0167 76° East 266 306 9,900  Level Potomac TRACON
Sat 01:30:00 PM 38.3891 -76.7000 180° South  Level FlightAware Approximate
Sat 01:30:28 PM 39.0000 -76.9167 102° East 310 357 10,900  Level Potomac TRACON
Sat 01:31:00 PM 38.2912 -76.6833 180° South  Level FlightAware Approximate
Sat 01:32:53 PM 38.7883 -76.8033 157° South 367 422 13,700  Level Washington Center
Sat 01:33:53 PM 38.6886 -76.7700 165° South 367 422 14,800 1,041 Climbing Washington Center
Sat 01:34:54 PM 38.5847 -76.7364 166° South 377 434 15,800 1,000 Climbing Washington Center
Sat 01:35:53 PM 38.4786 -76.7189 173° South 383 441 16,800 1,059 Climbing Washington Center
Sat 01:36:53 PM 38.3703 -76.7014 173° South 389 448 17,900 1,091 Climbing Washington Center
Sat 01:37:54 PM 38.2661 -76.6839 172° South 389 448 19,000 1,109 Climbing Washington Center
Sat 01:38:52 PM 38.1622 -76.6692 174° South 389 448 20,100 807 Climbing Washington Center
Sat 01:39:53 PM 38.0558 -76.6572 175° South 389 448 20,600 492 Climbing Washington Center
Sat 01:40:54 PM 37.9456 -76.6478 176° South 389 448 21,100 496 Climbing Washington Center
Sat 01:41:54 PM 37.8389 -76.6594 185° South 389 448 21,600 504 Climbing Washington Center
Sat 01:42:53 PM 37.7325 -76.6736 186° South 389 448 22,100 500 Climbing Washington Center
Sat 01:43:54 PM 37.6197 -76.6903 187° South 389 448 22,600 496 Climbing Washington Center
Sat 01:44:54 PM 37.5111 -76.7019 185° South 394 453 23,100 500 Climbing Washington Center
Sat 01:45:54 PM 37.4025 -76.7264 190° South 394 453 23,600 508 Climbing Washington Center
Sat 01:46:52 PM 37.2997 -76.7694 198° South 394 453 24,100 508 Climbing Washington Center
Sat 01:47:52 PM 37.1950 -76.8119 198° South 394 453 24,600 492 Climbing Washington Center
Sat 01:48:54 PM 37.0925 -76.8547 198° South 399 459 25,100 492 Climbing Washington Center
Sat 01:49:54 PM 36.9875 -76.8997 199° South 399 459 25,600 508 Climbing Washington Center
Sat 01:50:52 PM 36.8850 -76.9422 198° South 399 459 26,100 504 Climbing Washington Center
Sat 01:51:53 PM 36.7803 -76.9844 198° South 399 459 26,600 496 Climbing Washington Center
Sat 01:52:53 PM 36.6836 -77.0397 205° Southwest 399 459 27,100 496 Climbing Washington Center
Sat 01:53:54 PM 36.5992 -77.1211 218° Southwest 387 445 27,600 504 Climbing Washington Center
Sat 01:54:52 PM 36.5144 -77.2044 218° Southwest 392 451 28,100 504 Climbing Washington Center
Sat 01:55:53 PM 36.4278 -77.2828 216° Southwest 392 451 28,600 496 Climbing Washington Center
Sat 01:56:53 PM 36.3453 -77.3611 217° Southwest 387 445 29,100 496 Climbing Washington Center
Sat 01:57:54 PM 36.2608 -77.4414 217° Southwest 387 445 29,600 446 Climbing Washington Center
Sat 01:58:54 PM 36.1781 -77.5167 216° Southwest 376 433 30,000 203 Climbing Washington Center
Sat 01:59:52 PM 36.0933 -77.5969 217° Southwest 376 433 30,000  Level Washington Center
Sat 02:00:52 PM 36.0064 -77.6769 217° Southwest 386 444 30,000  Level Washington Center
Sat 02:01:53 PM 35.9153 -77.7542 214° Southwest 391 450 30,000  Level Washington Center
Sat 02:02:54 PM 35.8203 -77.8258 211° Southwest 409 471 30,000  Level Washington Center
Sat 02:03:54 PM 35.7228 -77.9022 212° Southwest 414 476 30,000  Level Washington Center
Sat 02:04:54 PM 35.6294 -77.9764 213° Southwest 414 476 30,000  Level Washington Center
Sat 02:05:52 PM 35.5531 -78.0353 212° Southwest 414 476 30,000 202 Level Washington Center
Sat 02:06:53 PM 35.4514 -78.1139 212° Southwest 414 476 30,400 446 Climbing Washington Center
Sat 02:07:53 PM 35.3558 -78.1872 212° Southwest 414 476 30,900 504 Climbing Washington Center
Sat 02:08:52 PM 35.2850 -78.2842 228° Southwest 401 461 31,400 500 Climbing Washington Center
Sat 02:09:53 PM 35.2219 -78.3889 234° Southwest 383 441 31,900 298 Climbing Washington Center
Sat 02:10:53 PM 35.1569 -78.4931 233° Southwest 393 452 32,000 50 Climbing Washington Center
Sat 02:11:54 PM 35.0675 -78.5636 213° Southwest 382 440 32,000  Level Washington Center
Sat 02:12:52 PM 34.9700 -78.6311 210° Southwest 388 447 32,000  Level Washington Center
Sat 02:13:53 PM 34.8722 -78.6956 208° Southwest 400 460 32,000  Level Washington Center
Sat 02:16:18 PM 34.6275 -78.8633 209° Southwest 420 483 32,000  Level Jacksonville Center
Sat 02:17:18 PM 34.5275 -78.9333 210° Southwest 415 478 32,000  Level Jacksonville Center
Sat 02:18:18 PM 34.4214 -79.0139 212° Southwest 415 478 32,000  Level Jacksonville Center
Sat 02:19:18 PM 34.3192 -79.0839 209° Southwest 415 478 32,000  Level Jacksonville Center
Sat 02:20:18 PM 34.2192 -79.1508 209° Southwest 415 478 32,000  Level Jacksonville Center
Sat 02:21:18 PM 34.1167 -79.2206 209° Southwest 415 478 32,000  Level Jacksonville Center
Sat 02:22:18 PM 34.0186 -79.2897 210° Southwest 415 478 32,000  Level Jacksonville Center
Sat 02:23:18 PM 33.9183 -79.3564 209° Southwest 415 478 32,000  Level Jacksonville Center
Sat 02:24:18 PM 33.8158 -79.4206 207° Southwest 415 478 32,000  Level Jacksonville Center
Sat 02:25:19 PM 33.7214 -79.4842 209° Southwest 410 472 32,000  Level Jacksonville Center
Sat 02:26:18 PM 33.6231 -79.5503 209° Southwest 410 472 32,000  Level Jacksonville Center
Sat 02:27:18 PM 33.5228 -79.6189 210° Southwest 410 472 32,000  Level Jacksonville Center
Sat 02:28:18 PM 33.4242 -79.6847 209° Southwest 410 472 32,000  Level Jacksonville Center
Sat 02:29:18 PM 33.3236 -79.7531 210° Southwest 410 472 32,000  Level Jacksonville Center
Sat 02:30:18 PM 33.2250 -79.8161 208° Southwest 410 472 32,000  Level Jacksonville Center
Sat 02:31:18 PM 33.1244 -79.8814 209° Southwest 410 472 32,000  Level Jacksonville Center
Sat 02:32:19 PM 33.0236 -79.9494 210° Southwest 415 478 32,000  Level Jacksonville Center
Sat 02:33:18 PM 32.9311 -80.0069 208° Southwest 415 478 32,000  Level Jacksonville Center
Sat 02:34:18 PM 32.8325 -80.0817 212° Southwest 415 478 32,000 -150 Level Jacksonville Center
Sat 02:35:18 PM 32.7361 -80.1586 214° Southwest 420 483 31,700 -450 Descending Jacksonville Center
Sat 02:36:18 PM 32.6375 -80.2358 213° Southwest 426 490 31,100 -850 Descending Jacksonville Center
Sat 02:37:18 PM 32.5350 -80.3175 214° Southwest 432 497 30,000 -550 Descending Jacksonville Center
Sat 02:38:18 PM 32.4342 -80.3967 214° Southwest 437 503 30,000  Level Jacksonville Center
Sat 02:39:18 PM 32.3333 -80.4733 213° Southwest 437 503 30,000  Level Jacksonville Center
Sat 02:40:18 PM 32.2367 -80.5494 214° Southwest 437 503 30,000  Level Jacksonville Center
Sat 02:41:18 PM 32.1358 -80.6306 214° Southwest 431 496 30,000  Level Jacksonville Center
Sat 02:42:18 PM 32.0472 -80.6939 211° Southwest 421 484 30,000 -450 Level Jacksonville Center
Sat 02:43:18 PM 31.9400 -80.7750 213° Southwest 421 484 29,100 -1,700 Descending Jacksonville Center
Sat 02:44:18 PM 31.8431 -80.8481 213° Southwest 421 484 26,600 -2,450 Descending Jacksonville Center
Sat 02:45:18 PM 31.7606 -80.9108 213° Southwest 407 468 24,200 -1,750 Descending Jacksonville Center
Sat 02:46:18 PM 31.6617 -80.9864 213° Southwest 397 457 23,100 -900 Descending Jacksonville Center
Sat 02:47:18 PM 31.5789 -81.0467 212° Southwest 390 449 22,400 -1,500 Descending Jacksonville Center
Sat 02:48:18 PM 31.4861 -81.1189 214° Southwest 380 437 20,100 -2,150 Descending Jacksonville Center
Sat 02:49:18 PM 31.3992 -81.1814 212° Southwest 375 432 18,100 -1,891 Descending Jacksonville Center
Sat 02:49:50 PM 31.3558 -81.2164 215° Southwest 359 413 17,200 -2,054 Descending Jacksonville Center
Sat 02:51:09 PM 31.2525 -81.2936 213° Southwest 340 391 14,300 -2,057 Descending Jacksonville Center
Sat 02:52:10 PM 31.1697 -81.3581 214° Southwest 327 376 12,400 -1,672 Descending Jacksonville Center
Sat 02:53:11 PM 31.0972 -81.4125 213° Southwest 304 350 10,900 -1,241 Descending Jacksonville Center
Sat 02:54:06 PM 31.0372 -81.4622 215° Southwest 297 342 10,000 -466 Descending Jacksonville Center
Sat 02:55:07 PM 30.9669 -81.5189 215° Southwest 295 339 10,000 -744 Level Jacksonville Center
Sat 02:56:07 PM 30.9069 -81.5706 216° Southwest 273 314 8,500 -1,636 Descending Jacksonville Center
Sat 02:57:08 PM 30.8428 -81.6197 213° Southwest 274 315 6,700 -1,721 Descending Jacksonville Center
Sat 02:58:09 PM 30.7786 -81.6739 216° Southwest 268 308 5,000 -885 Descending Jacksonville Center
Sat 02:59:10 PM 30.7183 -81.7231 215° Southwest 267 307 4,900 -590 Descending Jacksonville Center
Sat 03:00:11 PM 30.6583 -81.7697 214° Southwest 263 303 3,800 -1,034 Descending Jacksonville Center
Sat 03:01:06 PM 30.6000 -81.8067 209° Southwest 256 295 2,900 -991 Descending Jacksonville Center
Sat 03:02:00 PM 30.5458 -81.7950 169° South 216 249 2,000 -835 Descending Jacksonville Center
Sat 03:03:01 PM 30.4956 -81.7789 165° South 176 203 1,300 -703 Descending Jacksonville Center
Sat 03:04:08 PM 30.4867 -81.7233 101° East 140 161 500 -716 Descending Jacksonville Center

Login

Don't have an account? Register now (free) for customized features, flight alerts, and more!